Time;durP1;ratioP1;P1;durP2;ratioP2;P2;SDS_P1;SDS_P2;PMS_P1;PMS_P2;Temp;Humidity;BMP_temperature;BMP_pressure;BME280_temperature;BME280_humidity;BME280_pressure;Samples;Min_cycle;Max_cycle;Signal;HPM_P1;HPM_P2
2023/06/11 06:15:26;;;;;;;12.93;10.53;;;;;;;-145.18;100.00;46513.91;4814473;29;20763;-83
2023/06/11 06:17:52;;;;;;;13.30;11.13;;;;;;;-145.18;100.00;46529.53;4980053;28;20053;-83
2023/06/11 06:23:42;;;;;;;18.27;10.70;;;;;;;-145.18;100.00;46508.03;5042995;28;20040;-84
2023/06/11 06:26:13;;;;;;;12.23;9.90;;;;;;;-145.18;100.00;46504.13;5018892;28;20033;-84
2023/06/11 06:29:06;;;;;;;16.20;10.60;;;;;;;-145.18;100.00;46498.28;4999707;28;20151;-83
2023/06/11 06:35:40;;;;;;;;;;;;;;;;;;;;;
2023/06/11 06:38:19;;;;;;;12.37;10.33;;;;;;;-145.18;100.00;46506.09;4910165;29;20054;-85
2023/06/11 06:40:50;;;;;;;15.30;11.00;;;;;;;-145.18;100.00;46525.63;4915895;29;20032;-85
2023/06/11 06:43:19;;;;;;;13.47;10.20;;;;;;;-145.18;100.00;46611.56;4894351;29;20534;-85
2023/06/11 06:45:47;;;;;;;10.67;9.30;;;;;;;-145.18;100.00;46935.81;4949368;28;20401;-85
2023/06/11 06:48:20;;;;;;;15.13;10.27;;;;;;;-145.18;100.00;46660.41;4954121;28;20050;-85
2023/06/11 06:51:03;;;;;;;13.27;9.60;;;;;;;-145.18;100.00;46828.38;4965854;28;20037;-85
2023/06/11 06:53:31;;;;;;;12.60;9.57;;;;;;;-145.18;100.00;47004.19;4938950;29;20051;-85
2023/06/11 06:59:15;;;;;;;13.33;9.20;;;;;;;-145.18;100.00;47062.81;4893563;29;20036;-85
2023/06/11 08:05:17;;;;;;;14.82;8.43;;;;;;;-145.18;100.00;46974.91;4976487;23;20533;-62
2023/06/11 08:07:47;;;;;;;11.05;8.75;;;;;;;-145.18;100.00;46969.03;4980242;28;20033;-62
2023/06/11 08:10:13;;;;;;;11.30;8.65;;;;;;;-145.18;100.00;46969.03;5013816;28;20391;-63
2023/06/11 08:12:39;;;;;;;11.18;8.75;;;;;;;-145.18;100.00;46971.00;5013298;28;20033;-62
2023/06/11 08:15:05;;;;;;;9.45;8.32;;;;;;;-145.18;100.00;46984.66;5013355;28;20026;-62
2023/06/11 08:17:30;;;;;;;9.82;7.93;;;;;;;-145.18;100.00;46965.13;4995902;28;20026;-62
2023/06/11 08:19:55;;;;;;;12.38;8.50;;;;;;;-145.18;100.00;46961.22;5014024;28;20053;-62
2023/06/11 08:22:21;;;;;;;9.52;7.93;;;;;;;-145.18;100.00;46953.41;4996069;28;20026;-62
2023/06/11 08:24:46;;;;;;;10.68;9.10;;;;;;;-145.18;100.00;46953.41;5013673;28;20112;-62
2023/06/11 08:27:12;;;;;;;12.05;7.90;;;;;;;-145.18;100.00;46945.59;4995765;28;20049;-62
2023/06/11 08:29:38;;;;;;;10.68;8.65;;;;;;;-145.18;100.00;46937.78;5013010;28;20376;-62
2023/06/11 08:32:03;;;;;;;12.98;9.35;;;;;;;-145.18;100.00;46949.50;5013792;28;20033;-62
2023/06/11 08:34:29;;;;;;;9.85;8.02;;;;;;;-145.18;100.00;46943.63;4995854;28;20065;-63
2023/06/11 08:36:56;;;;;;;10.07;8.88;;;;;;;-145.18;100.00;46953.41;5012912;28;20033;-63
2023/06/11 08:39:21;;;;;;;9.07;7.85;;;;;;;-145.18;100.00;46937.78;5012841;28;20129;-63
2023/06/11 08:41:47;;;;;;;11.45;7.60;;;;;;;-145.18;100.00;46939.72;5013287;28;20108;-62
2023/06/11 08:44:13;;;;;;;9.57;7.95;;;;;;;-145.18;100.00;46949.50;5013507;28;20042;-62
2023/06/11 08:46:39;;;;;;;10.13;8.07;;;;;;;-145.18;100.00;46943.63;5012914;28;20030;-63
2023/06/11 08:49:06;;;;;;;10.80;8.48;;;;;;;-145.18;100.00;46937.78;5013766;28;20100;-63
2023/06/11 08:51:40;;;;;;;9.85;8.77;;;;;;;-145.18;100.00;46935.81;5013272;28;20029;-63
2023/06/11 08:54:07;;;;;;;14.60;8.77;;;;;;;-145.18;100.00;46941.69;5013386;28;20033;-62
2023/06/11 08:56:33;;;;;;;10.32;8.75;;;;;;;-145.18;100.00;46922.16;5013501;28;20038;-63
2023/06/11 08:59:00;;;;;;;10.02;7.80;;;;;;;-145.18;100.00;46918.25;5013713;28;20549;-63
2023/06/11 09:01:25;;;;;;;10.70;7.60;;;;;;;-145.18;100.00;46918.25;5012461;28;20104;-63
2023/06/11 09:03:51;;;;;;;12.25;8.13;;;;;;;-145.18;100.00;46924.09;4995261;28;20057;-63
2023/06/11 09:06:17;;;;;;;8.88;7.97;;;;;;;-145.18;100.00;46922.16;5011630;28;20050;-63
2023/06/11 09:08:43;;;;;;;10.77;8.85;;;;;;;-145.18;100.00;46922.16;5012495;28;20041;-62
2023/06/11 09:11:08;;;;;;;12.23;9.55;;;;;;;-145.18;100.00;46922.16;4995082;28;20034;-63
2023/06/11 09:13:34;;;;;;;9.50;8.35;;;;;;;-145.18;100.00;46924.09;5012777;28;20036;-63
2023/06/11 09:16:00;;;;;;;13.35;8.60;;;;;;;-145.18;100.00;46912.38;5012850;28;20117;-63
2023/06/11 09:18:26;;;;;;;11.13;8.23;;;;;;;-145.18;100.00;46914.34;4995378;28;20036;-63
2023/06/11 09:20:57;;;;;;;9.02;7.60;;;;;;;-145.18;100.00;46896.75;5011006;28;20030;-63
2023/06/11 09:23:34;;;;;;;8.88;7.90;;;;;;;-145.18;100.00;46910.44;5012303;28;20034;-63
2023/06/11 09:26:00;;;;;;;7.57;6.72;;;;;;;-145.18;100.00;46900.66;5013937;28;20045;-63
2023/06/11 09:28:34;;;;;;;10.90;7.03;;;;;;;-145.18;100.00;46892.84;4994336;28;20048;-63
2023/06/11 09:31:01;;;;;;;8.32;7.45;;;;;;;-145.18;100.00;46902.63;5011981;28;20037;-63
2023/06/11 09:33:28;;;;;;;7.28;5.75;;;;;;;-145.18;100.00;46894.81;5011118;28;20471;-63
2023/06/11 09:35:54;;;;;;;8.40;6.43;;;;;;;-145.18;100.00;46888.94;5019684;28;20033;-63
2023/06/11 09:38:21;;;;;;;7.38;6.53;;;;;;;-145.18;100.00;46890.91;4997528;28;20545;-63
2023/06/11 09:40:48;;;;;;;9.00;6.35;;;;;;;-145.18;100.00;46892.84;4994646;28;20033;-63
2023/06/11 09:43:14;;;;;;;6.50;5.78;;;;;;;-145.18;100.00;46887.00;5011650;28;20124;-63
2023/06/11 09:45:40;;;;;;;6.35;5.72;;;;;;;-145.18;100.00;46887.00;5012068;28;20022;-63
2023/06/11 09:48:11;;;;;;;7.30;5.28;;;;;;;-145.18;100.00;46894.81;5012422;28;20080;-60
2023/06/11 09:50:36;;;;;;;8.15;6.28;;;;;;;-145.18;100.00;46888.94;5011162;28;20065;-60
2023/06/11 09:53:03;;;;;;;6.80;6.03;;;;;;;-145.18;100.00;46888.94;4994726;28;20073;-60
2023/06/11 09:55:35;;;;;;;8.23;5.40;;;;;;;-145.18;100.00;46888.94;5011694;28;20045;-59
2023/06/11 09:58:02;;;;;;;8.70;5.70;;;;;;;-145.18;100.00;46867.44;5011844;28;20107;-59
2023/06/11 10:00:27;;;;;;;7.78;5.60;;;;;;;-145.18;100.00;46888.94;5011962;28;20030;-60
2023/06/11 10:02:53;;;;;;;9.18;5.80;;;;;;;-145.18;100.00;46867.44;5011464;28;20449;-60
2023/06/11 10:05:20;;;;;;;11.35;5.82;;;;;;;-145.18;100.00;46865.50;5011542;28;20053;-60
2023/06/11 10:07:45;;;;;;;6.05;5.45;;;;;;;-145.18;100.00;46871.38;5011394;28;20028;-60
2023/06/11 10:10:13;;;;;;;5.88;5.28;;;;;;;-145.18;100.00;46881.13;5012217;28;20038;-61
2023/06/11 10:12:39;;;;;;;7.60;4.80;;;;;;;-145.18;100.00;46861.59;5011212;28;20030;-59
2023/06/11 10:15:09;;;;;;;5.78;5.18;;;;;;;-145.18;100.00;46869.41;5012109;28;20044;-60
2023/06/11 10:17:35;;;;;;;6.10;4.97;;;;;;;-145.18;100.00;46863.53;5004432;28;20098;-60
2023/06/11 10:20:00;;;;;;;5.35;4.65;;;;;;;-145.18;100.00;46859.63;5011621;28;20475;-60
2023/06/11 10:22:34;;;;;;;5.40;4.57;;;;;;;-145.18;100.00;46859.63;5010653;28;20117;-60
2023/06/11 10:25:01;;;;;;;5.05;4.45;;;;;;;-145.18;100.00;46865.50;5011768;28;20029;-60
2023/06/11 10:27:37;;;;;;;7.15;3.90;;;;;;;-145.18;100.00;46855.72;5012005;28;20018;-60
2023/06/11 10:30:07;;;;;;;7.90;4.50;;;;;;;-145.18;100.00;46859.63;5011043;28;20042;-60
2023/06/11 10:32:34;;;;;;;5.63;4.45;;;;;;;-145.18;100.00;46844.00;5011404;28;20034;-60
2023/06/11 10:35:05;;;;;;;6.95;5.13;;;;;;;-145.18;100.00;46855.72;5013419;28;20036;-60
2023/06/11 10:37:36;;;;;;;5.78;4.25;;;;;;;-145.18;100.00;46861.59;5021670;28;20060;-60
2023/06/11 10:40:05;;;;;;;5.07;4.43;;;;;;;-145.18;100.00;46844.00;5011571;28;20487;-60
2023/06/11 10:42:39;;;;;;;5.60;4.57;;;;;;;-145.18;100.00;46857.69;5011593;28;20034;-60
2023/06/11 10:45:09;;;;;;;5.47;4.97;;;;;;;-145.18;100.00;46855.72;4997883;28;20117;-60
2023/06/11 10:47:49;;;;;;;5.43;4.40;;;;;;;-145.18;100.00;46844.00;5001436;28;20041;-60
2023/06/11 10:50:17;;;;;;;8.48;4.90;;;;;;;-145.18;100.00;46844.00;5001461;28;20041;-60
2023/06/11 10:52:56;;;;;;;5.53;4.43;;;;;;;-145.18;100.00;46844.00;5006461;28;20129;-60
2023/06/11 10:55:23;;;;;;;8.82;4.43;;;;;;;-145.18;100.00;46883.09;5009553;28;20037;-60
2023/06/11 10:57:59;;;;;;;8.48;4.60;;;;;;;-145.18;100.00;46844.00;5006583;28;20034;-63
2023/06/11 11:00:28;;;;;;;5.35;4.70;;;;;;;-145.18;100.00;46871.38;5011601;28;20122;-63
2023/06/11 11:02:56;;;;;;;7.32;4.60;;;;;;;-145.18;100.00;46847.91;5013438;28;20037;-63
2023/06/11 11:05:21;;;;;;;8.27;5.07;;;;;;;-145.18;100.00;46855.72;5015452;28;20069;-63
2023/06/11 11:07:47;;;;;;;5.00;4.50;;;;;;;-145.18;100.00;46863.53;5015281;28;20091;-63
2023/06/11 11:10:19;;;;;;;5.88;5.13;;;;;;;-145.18;100.00;46842.06;5005384;28;20103;-63
2023/06/11 11:12:46;;;;;;;5.75;4.72;;;;;;;-145.18;100.00;46847.91;5006000;28;20030;-63
2023/06/11 11:15:14;;;;;;;7.28;4.65;;;;;;;-145.18;100.00;46836.19;5015150;28;20050;-63
2023/06/11 11:17:41;;;;;;;7.20;5.28;;;;;;;-145.18;100.00;46828.38;5014410;28;20034;-63
2023/06/11 11:20:11;;;;;;;6.32;4.65;;;;;;;-145.18;100.00;46844.00;5014008;28;20041;-63
2023/06/11 11:22:37;;;;;;;6.88;4.68;;;;;;;-145.18;100.00;46836.19;5014280;28;20033;-63
2023/06/11 11:25:05;;;;;;;7.20;4.63;;;;;;;-145.18;100.00;46836.19;5021633;28;20104;-63
2023/06/11 11:27:32;;;;;;;6.68;4.43;;;;;;;-145.18;100.00;46836.19;5013638;28;20111;-63
2023/06/11 11:30:00;;;;;;;6.07;4.70;;;;;;;-145.18;100.00;46851.81;5013016;28;20101;-63
2023/06/11 11:32:33;;;;;;;8.05;4.65;;;;;;;-145.18;100.00;46851.81;5015575;28;20032;-63
2023/06/11 11:35:01;;;;;;;5.85;4.20;;;;;;;-145.18;100.00;46834.25;5011916;28;20045;-63
2023/06/11 11:37:28;;;;;;;5.85;4.45;;;;;;;-145.18;100.00;46863.53;5010591;28;20034;-63
2023/06/11 11:39:54;;;;;;;4.90;4.40;;;;;;;-145.18;100.00;46867.44;5009794;28;20077;-63
2023/06/11 11:42:22;;;;;;;7.53;4.03;;;;;;;-145.18;100.00;46836.19;5012841;28;20166;-63
2023/06/11 11:44:51;;;;;;;10.13;5.13;;;;;;;-145.18;100.00;46832.28;5015735;28;20483;-63
2023/06/11 11:47:19;;;;;;;7.03;4.68;;;;;;;-145.18;100.00;46822.53;5015952;28;20045;-64
2023/06/11 11:49:55;;;;;;;5.38;4.22;;;;;;;-145.18;100.00;46844.00;5015159;28;20038;-63
2023/06/11 11:52:22;;;;;;;7.32;4.55;;;;;;;-145.18;100.00;46801.03;5015495;28;20562;-63
2023/06/11 11:54:47;;;;;;;6.40;4.05;;;;;;;-145.18;100.00;46847.91;5013556;28;20076;-63
2023/06/11 11:57:13;;;;;;;6.75;4.40;;;;;;;-145.18;100.00;46877.22;4997035;28;20033;-63
2023/06/11 11:59:40;;;;;;;5.18;3.97;;;;;;;-145.18;100.00;46822.53;5013929;28;20433;-63
2023/06/11 12:02:06;;;;;;;4.50;3.90;;;;;;;-145.18;100.00;46806.91;5012552;28;20026;-64
2023/06/11 12:04:45;;;;;;;5.88;4.00;;;;;;;-145.18;100.00;46810.81;5012670;28;20046;-63
2023/06/11 12:07:13;;;;;;;4.82;4.40;;;;;;;-145.18;91.51;46814.72;5013287;28;20046;-64
2023/06/11 12:09:39;;;;;;;6.28;4.13;;;;;;;-145.18;89.41;46808.84;5011183;28;20041;-60
2023/06/11 12:12:05;;;;;;;4.40;3.97;;;;;;;-145.18;100.00;46804.94;5013565;28;20025;-60
2023/06/11 12:14:31;;;;;;;4.75;4.20;;;;;;;-145.18;81.82;46810.81;5011894;28;20026;-60
2023/06/11 12:16:57;;;;;;;8.32;4.07;;;;;;;-145.18;87.33;46816.66;5013575;28;20368;-60
2023/06/11 12:19:22;;;;;;;5.97;3.70;;;;;;;-145.18;85.89;46801.03;5013596;28;20092;-60
2023/06/11 12:21:48;;;;;;;4.70;4.05;;;;;;;-145.18;82.65;46801.03;5013549;28;20498;-60
2023/06/11 12:24:17;;;;;;;5.30;4.25;;;;;;;-145.18;86.93;46804.94;5008679;28;20402;-60
2023/06/11 12:26:47;;;;;;;4.82;4.15;;;;;;;-145.18;80.32;46801.03;5012786;28;20391;-60
2023/06/11 12:29:13;;;;;;;6.60;3.67;;;;;;;-145.18;77.00;46803.00;5013056;28;20029;-60
2023/06/11 12:31:39;;;;;;;4.93;3.78;;;;;;;-145.18;74.27;46797.13;5013780;28;20041;-61
2023/06/11 12:34:05;;;;;;;4.18;3.78;;;;;;;-145.18;67.96;46789.31;5013532;28;20061;-60
2023/06/11 12:36:32;;;;;;;6.72;4.10;;;;;;;-145.18;68.68;46797.13;5013063;28;20410;-60
2023/06/11 12:39:03;;;;;;;5.25;3.30;;;;;;;-145.18;66.64;46795.19;5013603;28;20036;-60
2023/06/11 12:41:28;;;;;;;5.05;3.88;;;;;;;-145.18;61.81;46793.22;4995785;28;20458;-60
2023/06/11 12:43:54;;;;;;;3.85;3.13;;;;;;;-145.18;68.21;46785.41;4996270;28;20030;-60
2023/06/11 12:46:19;;;;;;;3.85;3.42;;;;;;;-145.18;65.75;46824.47;5012463;28;20501;-60
2023/06/11 12:48:45;;;;;;;5.53;3.58;;;;;;;-145.18;68.06;46797.13;5012551;28;20101;-60
2023/06/11 12:51:10;;;;;;;7.32;3.60;;;;;;;-145.18;67.07;46781.50;5013431;28;20391;-60
2023/06/11 12:53:35;;;;;;;3.95;3.20;;;;;;;-145.18;64.15;46791.28;5013129;28;20055;-60
2023/06/11 12:56:01;;;;;;;3.10;2.80;;;;;;;-145.18;65.92;46787.38;5013374;28;20046;-60
2023/06/11 12:58:26;;;;;;;3.90;3.17;;;;;;;-145.18;68.12;46799.09;5017717;28;20067;-60
2023/06/11 13:00:52;;;;;;;5.82;3.03;;;;;;;-145.18;64.56;46777.59;5013394;28;20026;-60
2023/06/11 13:03:17;;;;;;;6.55;2.97;;;;;;;-145.18;64.86;46793.22;5013041;28;20045;-60
2023/06/11 13:05:43;;;;;;;3.88;3.10;;;;;;;-145.18;64.60;46785.41;5012510;28;20066;-60
2023/06/11 13:08:08;;;;;;;3.33;2.83;;;;;;;-145.18;60.39;46773.69;5007485;28;20045;-61
2023/06/11 13:10:33;;;;;;;5.72;3.10;;;;;;;-145.18;62.86;46777.59;5010634;28;20026;-60
2023/06/11 13:12:59;;;;;;;4.80;2.97;;;;;;;-145.18;62.35;46777.59;5005810;28;20065;-60
2023/06/11 13:15:24;;;;;;;4.72;3.03;;;;;;;-145.18;58.37;46783.47;5012272;28;20380;-60
2023/06/11 13:17:50;;;;;;;4.55;2.90;;;;;;;-145.18;65.46;46769.78;5012685;28;20537;-61
2023/06/11 13:20:16;;;;;;;2.78;2.45;;;;;;;-145.18;55.66;46777.59;5012913;28;20036;-61
2023/06/11 13:22:42;;;;;;;4.05;3.20;;;;;;;-145.18;55.81;46785.41;4995269;28;20037;-60
2023/06/11 13:25:07;;;;;;;8.50;3.15;;;;;;;-145.18;57.25;46779.56;5012231;28;20034;-60
2023/06/11 13:27:33;;;;;;;4.53;2.95;;;;;;;-145.18;52.84;46775.66;5012738;28;20498;-60
2023/06/11 13:30:01;;;;;;;3.60;2.83;;;;;;;-145.18;52.02;46785.41;5012027;28;20053;-60
2023/06/11 13:32:27;;;;;;;2.78;2.58;;;;;;;-145.18;49.82;46775.66;4999103;28;20137;-60
2023/06/11 13:34:52;;;;;;;3.00;2.63;;;;;;;-145.18;52.21;46777.59;5011878;28;20030;-60
2023/06/11 13:37:19;;;;;;;4.45;3.15;;;;;;;-145.18;50.02;46761.97;5012387;28;20473;-61
2023/06/11 13:39:44;;;;;;;9.45;3.33;;;;;;;-145.18;51.41;46769.78;5011929;28;20136;-60
2023/06/11 13:42:10;;;;;;;3.75;2.42;;;;;;;-145.18;50.26;46775.66;5011695;28;20134;-60
2023/06/11 13:44:35;;;;;;;2.97;2.67;;;;;;;-145.18;51.59;46779.56;5012164;28;20042;-60
2023/06/11 13:47:01;;;;;;;4.18;2.67;;;;;;;-145.18;50.59;46773.69;5012427;28;20056;-60
2023/06/11 13:49:26;;;;;;;5.00;3.03;;;;;;;-145.18;52.20;46771.75;4994302;28;20026;-60
2023/06/11 13:51:52;;;;;;;3.42;3.10;;;;;;;-145.18;51.43;46758.06;5012261;28;20034;-60
2023/06/11 13:54:17;;;;;;;6.43;2.90;;;;;;;-145.18;51.50;46758.06;4994942;28;20040;-61
2023/06/11 13:56:44;;;;;;;8.18;2.78;;;;;;;-145.18;54.53;46763.91;5012515;28;20463;-60
2023/06/11 13:59:10;;;;;;;5.70;2.90;;;;;;;-145.18;51.13;46756.09;5011493;28;20025;-60
2023/06/11 14:01:35;;;;;;;5.32;3.35;;;;;;;-145.18;51.63;46756.09;4978303;28;20551;-60
2023/06/11 14:04:01;;;;;;;4.20;3.13;;;;;;;-145.18;51.62;46761.97;5011756;28;20041;-60
2023/06/11 14:06:26;;;;;;;4.95;3.17;;;;;;;-145.18;51.18;46754.16;4978141;28;20535;-61
2023/06/11 14:08:52;;;;;;;3.72;3.10;;;;;;;-145.18;53.92;46742.44;5011482;28;20033;-61
2023/06/11 14:11:17;;;;;;;3.83;3.00;;;;;;;-145.18;49.97;46758.06;5012465;28;20037;-60
2023/06/11 14:13:44;;;;;;;4.78;2.95;;;;;;;-145.18;53.68;46754.16;5012092;28;20022;-60
2023/06/11 14:16:10;;;;;;;4.63;2.80;;;;;;;-145.18;49.02;46767.84;5011757;28;20065;-61
2023/06/11 14:18:35;;;;;;;3.88;3.40;;;;;;;-145.18;49.05;46763.91;5012048;28;20030;-61
2023/06/11 14:21:00;;;;;;;3.50;2.90;;;;;;;-145.18;54.39;46765.88;4994449;28;20515;-60
2023/06/11 14:23:26;;;;;;;3.17;2.75;;;;;;;-145.18;53.64;46773.69;5011724;28;20035;-61
2023/06/11 14:25:51;;;;;;;4.35;2.97;;;;;;;-145.18;53.57;46761.97;4993577;28;20030;-60
2023/06/11 14:28:17;;;;;;;3.22;2.88;;;;;;;-145.18;53.41;46754.16;5020214;28;20025;-60
2023/06/11 14:30:42;;;;;;;5.90;3.22;;;;;;;-145.18;54.46;46767.84;5012169;28;20541;-63
2023/06/11 14:33:07;;;;;;;3.47;3.13;;;;;;;-145.18;56.34;46771.75;5011631;28;20069;-63
2023/06/11 14:35:33;;;;;;;6.32;3.30;;;;;;;-145.18;48.08;46760.00;5012054;28;20502;-63
2023/06/11 14:37:58;;;;;;;5.55;2.85;;;;;;;-145.18;49.78;46767.84;4996383;28;20061;-64
2023/06/11 14:40:23;;;;;;;5.00;2.72;;;;;;;-145.18;44.61;46765.88;4997422;28;20487;-63
2023/06/11 14:42:49;;;;;;;3.38;2.67;;;;;;;-145.18;45.93;46769.78;5016414;28;20105;-64
2023/06/11 14:45:14;;;;;;;3.85;3.05;;;;;;;-145.18;47.97;46775.66;5015563;28;20044;-64
2023/06/11 14:47:40;;;;;;;6.25;2.70;;;;;;;-145.18;49.45;46771.75;5014988;28;20033;-63
2023/06/11 14:50:06;;;;;;;4.95;3.38;;;;;;;-145.18;46.12;46783.47;5015320;28;20052;-63
2023/06/11 14:52:31;;;;;;;3.50;2.88;;;;;;;-145.18;48.66;46767.84;5015548;28;20484;-63
2023/06/11 14:54:57;;;;;;;4.20;3.05;;;;;;;-145.18;46.84;46765.88;5015365;28;20061;-63
2023/06/11 14:57:22;;;;;;;3.28;2.78;;;;;;;-145.18;45.87;46756.09;5015732;28;20096;-64
2023/06/11 14:59:48;;;;;;;3.85;2.90;;;;;;;-145.18;48.14;46742.44;5013670;28;20537;-64
2023/06/11 15:02:16;;;;;;;5.85;2.75;;;;;;;-145.18;45.08;46765.88;5014022;28;20513;-63
2023/06/11 15:04:43;;;;;;;3.72;3.10;;;;;;;-145.18;44.38;46767.84;5012865;28;20076;-63
2023/06/11 15:07:12;;;;;;;6.43;3.20;;;;;;;-145.18;45.65;46761.97;5013746;28;20495;-63
2023/06/11 15:09:39;;;;;;;5.22;2.60;;;;;;;-145.18;43.80;46758.06;5014049;28;20037;-63
2023/06/11 15:12:07;;;;;;;4.20;3.40;;;;;;;-145.18;46.24;46763.91;5013429;28;20033;-63
2023/06/11 15:14:33;;;;;;;3.38;2.85;;;;;;;-145.18;44.30;46765.88;5013074;28;20857;-63
2023/06/11 15:16:58;;;;;;;5.93;2.95;;;;;;;-145.18;41.25;46760.00;5015060;28;20514;-63
2023/06/11 15:19:24;;;;;;;4.20;3.08;;;;;;;-145.18;43.66;46767.84;5015856;28;20025;-63
2023/06/11 15:21:50;;;;;;;3.22;2.90;;;;;;;-145.18;42.95;46758.06;5014492;28;20773;-63
2023/06/11 15:24:16;;;;;;;3.45;3.15;;;;;;;-145.18;43.62;46750.25;5014117;28;20466;-63
2023/06/11 15:26:42;;;;;;;3.30;2.78;;;;;;;-145.18;42.06;46756.09;5008875;28;20113;-64
2023/06/11 15:29:07;;;;;;;3.17;2.83;;;;;;;-145.18;40.85;46734.63;5014533;28;20026;-64
2023/06/11 15:31:33;;;;;;;3.88;3.15;;;;;;;-145.18;41.99;46732.66;5014033;28;20173;-64
2023/06/11 15:33:58;;;;;;;4.25;3.17;;;;;;;-145.18;39.39;46730.72;5021845;28;20120;-64
2023/06/11 15:36:23;;;;;;;6.25;3.33;;;;;;;-145.18;39.97;46722.91;5017238;28;20369;-64
2023/06/11 15:38:49;;;;;;;4.22;3.28;;;;;;;-145.18;38.38;46719.00;5014359;28;20483;-60
2023/06/11 15:41:14;;;;;;;4.80;3.30;;;;;;;-145.18;38.56;46713.13;5014721;28;20046;-60
2023/06/11 15:43:40;;;;;;;4.82;3.33;;;;;;;-145.18;37.42;46703.38;5001517;28;20578;-60
2023/06/11 15:46:05;;;;;;;5.97;3.00;;;;;;;-145.18;36.79;46711.19;4997013;28;20026;-60
2023/06/11 15:48:31;;;;;;;6.35;3.00;;;;;;;-145.18;36.10;46699.47;5013702;28;20029;-60
2023/06/11 15:50:56;;;;;;;5.93;2.92;;;;;;;-145.18;35.78;46683.84;5014254;28;20030;-60
2023/06/11 15:53:22;;;;;;;5.78;3.22;;;;;;;-145.18;35.14;46681.88;5014837;28;20038;-61
2023/06/11 15:55:47;;;;;;;4.88;3.35;;;;;;;-145.18;33.68;46683.84;5013925;28;20116;-61
2023/06/11 15:58:13;;;;;;;5.55;3.20;;;;;;;-145.18;33.22;46679.94;5013961;28;20045;-61
2023/06/11 16:00:38;;;;;;;3.80;2.95;;;;;;;-145.18;33.09;46676.03;5014458;28;20483;-60
2023/06/11 16:03:04;;;;;;;5.63;2.97;;;;;;;-145.18;32.56;46679.94;5013166;28;20326;-60
2023/06/11 16:05:29;;;;;;;4.20;3.10;;;;;;;-145.18;32.68;46672.13;5013511;28;20053;-61
2023/06/11 16:07:54;;;;;;;3.47;3.17;;;;;;;-145.18;32.12;46666.25;5013617;28;20030;-61
2023/06/11 16:10:20;;;;;;;4.75;3.10;;;;;;;-145.18;31.23;46674.06;5013766;28;20038;-60
2023/06/11 16:12:46;;;;;;;3.05;2.60;;;;;;;-145.18;31.72;46666.25;5013583;28;20030;-60
2023/06/11 16:15:12;;;;;;;4.13;2.90;;;;;;;-145.18;31.33;46681.88;5008907;28;20037;-60
2023/06/11 16:17:37;;;;;;;4.85;3.10;;;;;;;-145.18;31.66;46695.56;5013629;28;20063;-60
2023/06/11 16:20:03;;;;;;;4.72;3.03;;;;;;;-145.18;31.99;46677.97;5006649;28;20022;-60
2023/06/11 16:22:29;;;;;;;3.03;2.55;;;;;;;-145.18;31.36;46681.88;4996609;28;20129;-60
2023/06/11 16:24:54;;;;;;;5.60;3.00;;;;;;;-145.18;30.46;46687.75;5009714;28;20046;-60
2023/06/11 16:27:20;;;;;;;7.88;2.90;;;;;;;-145.18;30.32;46685.78;4996070;28;20026;-61
2023/06/11 16:29:45;;;;;;;4.22;3.63;;;;;;;-145.18;30.92;46719.00;5013123;28;20109;-60
2023/06/11 16:32:12;;;;;;;5.07;3.38;;;;;;;-145.18;31.87;46699.47;5013099;28;20479;-60
2023/06/11 16:34:38;;;;;;;4.18;3.28;;;;;;;-145.18;31.17;46713.13;5013999;28;20033;-60
2023/06/11 16:37:03;;;;;;;3.33;3.00;;;;;;;-145.18;31.83;46703.38;5013154;28;20403;-60
2023/06/11 16:39:29;;;;;;;4.32;3.15;;;;;;;-145.18;31.68;46699.47;5013841;28;20026;-60
2023/06/11 16:41:55;;;;;;;3.88;3.22;;;;;;;-145.18;32.62;46689.69;5012355;28;20041;-60
2023/06/11 16:44:20;;;;;;;4.95;3.08;;;;;;;-145.18;31.41;46701.41;5013459;28;20033;-60
2023/06/11 16:46:46;;;;;;;3.20;2.90;;;;;;;-145.18;31.61;46701.41;4995704;28;20030;-60
2023/06/11 16:49:11;;;;;;;3.78;2.95;;;;;;;-145.18;32.22;46707.28;5013533;28;20447;-60
2023/06/11 16:51:37;;;;;;;3.22;2.60;;;;;;;-145.18;31.91;46715.09;4979724;28;20033;-60
2023/06/11 16:54:02;;;;;;;6.82;2.95;;;;;;;-145.18;33.72;46758.06;5013518;28;20525;-60
2023/06/11 16:56:28;;;;;;;3.33;2.90;;;;;;;-145.18;36.94;46789.31;5018543;28;20486;-60
2023/06/11 16:58:55;;;;;;;4.13;3.10;;;;;;;-145.18;39.86;46795.19;5017890;28;20403;-60
2023/06/11 17:01:21;;;;;;;5.47;3.05;;;;;;;-145.18;42.48;46808.84;5012500;28;20036;-60
2023/06/11 17:03:47;;;;;;;4.68;3.92;;;;;;;-145.18;42.37;46806.91;5013139;28;20065;-59
2023/06/11 17:06:12;;;;;;;4.45;3.28;;;;;;;-145.18;44.14;46812.75;4994987;28;20042;-60
2023/06/11 17:08:38;;;;;;;4.30;3.58;;;;;;;-145.18;43.07;46822.53;5013051;28;20033;-59
2023/06/11 17:11:03;;;;;;;5.53;3.60;;;;;;;-145.18;41.54;46820.56;5013176;28;20045;-60
2023/06/11 17:13:28;;;;;;;5.00;3.70;;;;;;;-145.18;44.89;46818.63;4995016;28;20487;-60
2023/06/11 17:15:54;;;;;;;5.97;3.90;;;;;;;-145.18;42.98;46812.75;5012702;28;20118;-60
2023/06/11 17:18:19;;;;;;;5.47;3.45;;;;;;;-145.18;45.00;46830.34;5012695;28;20030;-60
2023/06/11 17:20:45;;;;;;;3.85;3.35;;;;;;;-145.18;47.06;46832.28;5012345;28;20030;-60
2023/06/11 17:23:10;;;;;;;4.88;3.47;;;;;;;-145.18;49.32;46822.53;5012923;28;20034;-60
2023/06/11 17:25:36;;;;;;;3.78;3.40;;;;;;;-145.18;48.00;46830.34;4994633;28;20546;-60
2023/06/11 17:28:02;;;;;;;4.88;3.75;;;;;;;-145.18;53.94;46830.34;5014520;28;20428;-59
2023/06/11 17:30:27;;;;;;;4.70;3.40;;;;;;;-145.18;53.83;46830.34;5013232;28;20065;-60
2023/06/11 17:32:53;;;;;;;5.07;3.83;;;;;;;-145.18;58.15;46832.28;5012966;28;20109;-60
2023/06/11 17:35:18;;;;;;;6.22;3.78;;;;;;;-145.18;58.19;46826.44;5015113;28;20092;-60
2023/06/11 17:37:44;;;;;;;5.20;3.95;;;;;;;-145.18;53.21;46828.38;5009083;28;20387;-59
2023/06/11 17:40:10;;;;;;;4.95;4.03;;;;;;;-145.18;56.51;46842.06;5012390;28;20108;-60
2023/06/11 17:42:40;;;;;;;4.35;3.78;;;;;;;-145.18;58.61;46836.19;5014114;28;20231;-60
2023/06/11 17:45:08;;;;;;;5.53;4.00;;;;;;;-145.18;63.00;46832.28;5011554;28;20021;-60
2023/06/11 17:47:36;;;;;;;8.02;3.83;;;;;;;-145.18;64.40;46836.19;5011828;28;20025;-60
2023/06/11 17:50:05;;;;;;;4.07;3.63;;;;;;;-145.18;68.26;46830.34;5012300;28;20026;-60
2023/06/11 17:52:30;;;;;;;4.40;3.72;;;;;;;-145.18;68.01;46828.38;5012005;28;20026;-60
2023/06/11 17:54:56;;;;;;;6.30;4.28;;;;;;;-145.18;59.71;46826.44;5011634;28;20080;-60
2023/06/11 17:57:21;;;;;;;5.88;3.80;;;;;;;-145.18;66.38;46816.66;4993710;28;20033;-60
2023/06/11 17:59:47;;;;;;;5.88;3.75;;;;;;;-145.18;70.24;46836.19;5011939;28;20061;-60
2023/06/11 18:02:12;;;;;;;4.28;3.88;;;;;;;-145.18;60.10;46851.81;4994119;28;20490;-60
2023/06/11 18:04:37;;;;;;;6.88;4.20;;;;;;;-145.18;60.20;46844.00;5011905;28;20050;-60
2023/06/11 18:07:04;;;;;;;8.85;3.92;;;;;;;-145.18;67.32;46842.06;5011637;28;20502;-60
2023/06/11 18:09:29;;;;;;;4.28;3.42;;;;;;;-145.18;62.63;46842.06;5012175;28;20038;-59
2023/06/11 18:11:54;;;;;;;4.35;3.95;;;;;;;-145.18;62.06;46844.00;5010697;28;20034;-59
2023/06/11 18:14:21;;;;;;;6.05;3.78;;;;;;;-145.18;61.15;46857.69;5012055;28;20061;-59
2023/06/11 18:16:47;;;;;;;5.63;4.22;;;;;;;-145.18;68.26;46845.97;5011379;28;20518;-60
2023/06/11 18:19:12;;;;;;;4.70;3.60;;;;;;;-145.18;64.08;46859.63;5011270;28;20069;-59
2023/06/11 18:21:37;;;;;;;6.65;4.07;;;;;;;-145.18;63.05;46851.81;4993823;28;20063;-59
2023/06/11 18:24:03;;;;;;;4.30;3.90;;;;;;;-145.18;68.14;46851.81;4974643;28;20077;-60
2023/06/11 18:26:29;;;;;;;4.78;3.50;;;;;;;-145.18;68.30;46844.00;5009066;28;20053;-60
2023/06/11 18:28:54;;;;;;;6.80;3.80;;;;;;;-145.18;64.97;46845.97;5011016;28;20462;-59
2023/06/11 18:31:22;;;;;;;6.90;4.22;;;;;;;-145.18;67.47;46867.44;5012002;28;20045;-60
2023/06/11 18:33:47;;;;;;;7.30;3.75;;;;;;;-145.18;70.08;46863.53;5011557;28;20045;-59
2023/06/11 18:36:13;;;;;;;6.47;4.53;;;;;;;-145.18;73.98;46865.50;4994005;28;20081;-60
2023/06/11 18:38:38;;;;;;;7.38;3.97;;;;;;;-145.18;77.37;46869.41;5011883;28;20034;-60
2023/06/11 18:41:03;;;;;;;10.32;4.85;;;;;;;-145.18;79.64;46867.44;5011197;28;20146;-59